Home > Products > Valid Products > TAF

000
FTUS43 KMPX 252333
TAFRWF
TAF
KRWF 252333Z 2600/2624 11009KT P6SM SCT045
     FM260400 08004KT P6SM SKC
     FM261500 07007KT P6SM SKC=



000
FTUS43 KMPX 252333
TAFSTC
TAF
KSTC 252333Z 2600/2624 07009KT P6SM SKC
     FM260300 06005KT P6SM SKC
     FM261500 07007KT P6SM SKC=



000
FTUS43 KMPX 252333
TAFAXN
TAF
KAXN 252333Z 2600/2624 09011KT P6SM SCT035
     FM260400 07006KT P6SM SKC
     FM261600 09007KT P6SM SKC=



000
FTUS43 KMPX 252333
TAFRWF
TAF
KRWF 252333Z 2600/2624 11009KT P6SM SCT045
     FM260400 08004KT P6SM SKC
     FM261500 07007KT P6SM SKC=



000
FTUS43 KMPX 252333
TAFEAU
TAF
KEAU 252333Z 2600/2624 07010KT P6SM SKC
     FM260400 05004KT P6SM SKC
     FM261800 02008KT P6SM SKC=



000
FTUS43 KMPX 252333
TAFAXN
TAF
KAXN 252333Z 2600/2624 09011KT P6SM SCT035
     FM260400 07006KT P6SM SKC
     FM261600 09007KT P6SM SKC=



000
FTUS43 KMPX 252333
TAFSTC
TAF
KSTC 252333Z 2600/2624 07009KT P6SM SKC
     FM260300 06005KT P6SM SKC
     FM261500 07007KT P6SM SKC=



000
FTUS43 KMPX 252333
TAFMSP
TAF
KMSP 252333Z 2600/2706 08009KT P6SM SCT150
     FM260400 05005KT P6SM SKC
     FM261800 03007KT P6SM SKC=



000
FTUS43 KMPX 252333
TAFMSP
TAF
KMSP 252333Z 2600/2706 08009KT P6SM SCT150
     FM260400 05005KT P6SM SKC
     FM261800 03007KT P6SM SKC=



000
FTUS43 KMPX 252333
TAFEAU
TAF
KEAU 252333Z 2600/2624 07010KT P6SM SKC
     FM260400 05004KT P6SM SKC
     FM261800 02008KT P6SM SKC=



000
FTUS43 KMPX 252054 AAA
TAFMSP
TAF AMD
KMSP 252054Z 2521/2624 09011KT P6SM FEW050 SCT150
     FM260100 06006KT P6SM SKC
     FM261800 03007KT P6SM SKC=



000
FTUS43 KMPX 251720
TAFSTC
TAF
KSTC 251720Z 2518/2618 09010G17KT P6SM FEW040 BKN090
     FM260100 07005KT P6SM FEW080
     FM260300 06003KT P6SM SKC
     FM261500 07006KT P6SM SKC=



000
FTUS43 KMPX 251720
TAFRWF
TAF
KRWF 251720Z 2518/2618 10012G19KT P6SM BKN045 BKN080
     FM252000 09011G17KT P6SM SCT050 BKN080
     FM260400 08004KT P6SM SKC=



000
FTUS43 KMPX 251720
TAFRWF
TAF
KRWF 251720Z 2518/2618 10012G19KT P6SM BKN045 BKN080
     FM252000 09011G17KT P6SM SCT050 BKN080
     FM260400 08004KT P6SM SKC=



000
FTUS43 KMPX 251720
TAFAXN
TAF
KAXN 251720Z 2518/2618 09012G18KT P6SM OVC040
     FM251900 09011G18KT P6SM BKN060
     FM260400 10006KT P6SM SKC=



000
FTUS43 KMPX 251720
TAFEAU
TAF
KEAU 251720Z 2518/2618 07011G18KT P6SM FEW050
     FM260000 03003KT P6SM SKC=



000
FTUS43 KMPX 251720
TAFSTC
TAF
KSTC 251720Z 2518/2618 09010G17KT P6SM FEW040 BKN090
     FM260100 07005KT P6SM FEW080
     FM260300 06003KT P6SM SKC
     FM261500 07006KT P6SM SKC=



000
FTUS43 KMPX 251720
TAFMSP
TAF
KMSP 251720Z 2518/2624 08011G19KT P6SM FEW045 SCT080 SCT250
     FM252100 07011KT P6SM SCT080 SCT250
     FM260100 06006KT P6SM SKC
     FM261800 03007KT P6SM SKC=



000
FTUS43 KMPX 251720
TAFMSP
TAF
KMSP 251720Z 2518/2624 08011G19KT P6SM FEW045 SCT080 SCT250
     FM252100 07011KT P6SM SCT080 SCT250
     FM260100 06006KT P6SM SKC
     FM261800 03007KT P6SM SKC=



000
FTUS43 KMPX 251720
TAFAXN
TAF
KAXN 251720Z 2518/2618 09012G18KT P6SM OVC040
     FM251900 09011G18KT P6SM BKN060
     FM260400 10006KT P6SM SKC=



000
FTUS43 KMPX 251720
TAFEAU
TAF
KEAU 251720Z 2518/2618 07011G18KT P6SM FEW050
     FM260000 03003KT P6SM SKC=



000
FTUS43 KMPX 251502 AAB
TAFAXN
TAF AMD
KAXN 251502Z 2515/2612 09012G18KT P6SM BKN040
     FM251900 09011G18KT P6SM BKN060
     FM260100 10006KT P6SM SKC=



000
FTUS43 KMPX 251500 AAA
TAFSTC
TAF AMD
KSTC 251500Z 2515/2612 09010G17KT P6SM BKN045
     FM260000 07004KT P6SM SKC=



000
FTUS43 KMPX 251457 AAA
TAFMSP
TAF AMD
KMSP 251457Z 2515/2618 09012G19KT P6SM FEW025 BKN050
     FM252200 07012KT P6SM SCT050
     FM260200 06005KT P6SM SKC=



000
FTUS43 KMPX 251349 AAA
TAFRWF
TAF AMD
KRWF 251349Z 2514/2612 10012G20KT P6SM SCT015 OVC035
     FM252000 09010G16KT P6SM SCT030 OVC050
     FM260400 08005KT P6SM SKC=



000
FTUS43 KMPX 251347 AAA
TAFAXN
TAF AMD
KAXN 251347Z 2514/2612 09012KT P6SM BKN022 OVC035
     FM251900 09012G18KT P6SM SCT030 OVC050
     FM260400 10006KT P6SM SKC=



000
FTUS43 KMPX 251120
TAFMSP
TAF
KMSP 251120Z 2512/2618 08014G20KT P6SM SCT025 OVC050
     FM252000 07012KT P6SM BKN050
     FM260200 06005KT P6SM SKC=



000
FTUS43 KMPX 251120
TAFAXN
TAF
KAXN 251120Z 2512/2612 10011G18KT 3SM BR OVC004
     FM251400 09012KT P6SM OVC010
     FM251900 09012G18KT P6SM SCT030 OVC050
     FM260400 10006KT P6SM SKC=



000
FTUS43 KMPX 251120
TAFSTC
TAF
KSTC 251120Z 2512/2612 09009KT P6SM SCT015 OVC025
     FM251600 08010G16KT P6SM SCT030 OVC050
     FM260300 07004KT P6SM SKC=



000
FTUS43 KMPX 251120
TAFEAU
TAF
KEAU 251120Z 2512/2612 09012KT P6SM SCT020 OVC040
     FM251500 09014G20KT P6SM OVC050
     FM252000 07010KT P6SM BKN050
     FM260000 06004KT P6SM SKC=



000
FTUS43 KMPX 251120
TAFRWF
TAF
KRWF 251120Z 2512/2612 10011KT P6SM BKN015 OVC025
     FM251600 09012G19KT P6SM SCT025 OVC045
     FM252000 09010G16KT P6SM SCT030 OVC050
     FM260400 08005KT P6SM SKC=



000
FTUS43 KMPX 250913 AAA
TAFRWF
TAF AMD
KRWF 250913Z 2509/2606 10011KT P6SM SCT015 OVC025
     FM251600 09012G19KT P6SM SCT025 OVC045
     FM252000 09010G16KT P6SM SCT030 OVC050
     FM260400 09005KT P6SM SKC=



000
FTUS43 KMPX 250913 AAB
TAFEAU
TAF AMD
KEAU 250913Z 2509/2606 10011KT P6SM OVC015
     FM251000 09012KT P6SM SCT020 OVC035
     FM251500 09014G20KT P6SM OVC050
     FM252000 07010KT P6SM BKN050
     FM260200 06004KT P6SM SKC=



000
FTUS43 KMPX 250903 AAA
TAFSTC
TAF AMD
KSTC 250903Z 2509/2606 08008KT P6SM OVC018
     FM251200 09009KT P6SM SCT015 OVC025
     FM251600 08010G16KT P6SM SCT030 OVC050
     FM260300 07004KT P6SM SKC=



000
FTUS43 KMPX 250903 AAA
TAFSTC
TAF AMD
KSTC 250903Z 2509/2606 08008KT P6SM OVC018
     FM251200 09009KT P6SM SCT015 OVC025
     FM251600 08010G16KT P6SM SCT030 OVC050
     FM260300 07004KT P6SM SKC=



000
FTUS43 KMPX 250902 AAA
TAFMSP
TAF AMD
KMSP 250902Z 2509/2612 09014KT P6SM BKN020 OVC035
     FM251200 08014G20KT P6SM SCT025 OVC050
     FM252000 07010KT P6SM BKN050
     FM260200 06005KT P6SM SKC=



000
FTUS43 KMPX 250852 AAA
TAFAXN
TAF AMD
KAXN 250852Z 2509/2606 10011KT 2SM BR OVC003
     FM251400 09012KT 4SM BR OVC010
     FM251900 09012G18KT P6SM SCT030 OVC050
     FM260400 10005KT P6SM SKC=



000
FTUS43 KMPX 250852 AAA
TAFAXN
TAF AMD
KAXN 250852Z 2509/2606 10011KT 2SM BR OVC003
     FM251400 09012KT 4SM BR OVC010
     FM251900 09012G18KT P6SM SCT030 OVC050
     FM260400 10005KT P6SM SKC=



000
FTUS43 KMPX 250732 AAA
TAFEAU
TAF AMD
KEAU 250732Z 2508/2606 12010G15KT P6SM OVC015
     FM251200 09012G17KT P6SM SCT020 OVC035
     FM251500 09014G20KT P6SM OVC050
     FM252000 07010KT P6SM BKN050
     FM260200 06004KT P6SM SKC=



000
FTUS43 KMPX 250522
TAFRWF
TAF
KRWF 250522Z 2506/2606 10011KT P6SM OVC015
      TEMPO 2509/2512 OVC009
     FM251600 09012G19KT P6SM SCT015 OVC030
     FM252000 09010G16KT P6SM SCT030 OVC050
     FM260400 09005KT P6SM SKC=



000
FTUS43 KMPX 250520
TAFMSP
TAF
KMSP 250520Z 2506/2612 10014G20KT P6SM OVC014
     FM251200 09014G20KT P6SM BKN020 OVC030
     FM251500 09014G20KT P6SM SCT025 OVC050
     FM252000 07010KT P6SM BKN050=



000
FTUS43 KMPX 250520
TAFEAU
TAF
KEAU 250520Z 2506/2606 12010G15KT P6SM OVC040
     FM251000 09012G17KT P6SM SCT025 OVC035
     FM251500 09014G20KT P6SM OVC050
     FM252000 07010KT P6SM BKN050=



000
FTUS43 KMPX 250520
TAFSTC
TAF
KSTC 250520Z 2506/2606 11009G18KT P6SM OVC020
     FM250800 08008KT P6SM OVC015
     FM251200 09008KT P6SM SCT015 OVC030
     FM251800 08010G16KT P6SM SCT030 OVC050=



000
FTUS43 KMPX 250520
TAFSTC
TAF
KSTC 250520Z 2506/2606 11009G18KT P6SM OVC020
     FM250800 08008KT P6SM OVC015
     FM251200 09008KT P6SM SCT015 OVC030
     FM251800 08010G16KT P6SM SCT030 OVC050=



000
FTUS43 KMPX 250520
TAFAXN
TAF
KAXN 250520Z 2506/2606 10011G16KT 3SM BR OVC005
      TEMPO 2509/2512 2SM BR OVC003
     FM251400 08010KT 4SM BR OVC010
     FM251900 08012G18KT P6SM SCT030 OVC050=



000
FTUS43 KMPX 250520
TAFMSP
TAF
KMSP 250520Z 2506/2612 10014G20KT P6SM OVC014
     FM251200 09014G20KT P6SM BKN020 OVC030
     FM251500 09014G20KT P6SM SCT025 OVC050
     FM252000 07010KT P6SM BKN050=



000
FTUS43 KMPX 250520
TAFAXN
TAF
KAXN 250520Z 2506/2606 10011G16KT 3SM BR OVC005
      TEMPO 2509/2512 2SM BR OVC003
     FM251400 08010KT 4SM BR OVC010
     FM251900 08012G18KT P6SM SCT030 OVC050=



000
FTUS43 KMPX 250256 AAA
TAFEAU
TAF AMD
KEAU 250256Z 2503/2524 12010KT P6SM VCSH OVC040
     FM250600 09010KT P6SM OVC030
     FM251500 08014G20KT P6SM OVC019
     FM251800 07016G22KT P6SM BKN020 OVC030=



000
FTUS43 KMPX 250254 AAA
TAFMSP
TAF AMD
KMSP 250254Z 2503/2606 10015G20KT P6SM BKN016 OVC025
     FM250600 09014G20KT 6SM BR OVC014
     FM251500 08014G20KT P6SM OVC019
     FM251800 07016G22KT P6SM BKN020 OVC030
     FM252000 06014KT P6SM BKN035=



000
FTUS43 KMPX 250254 AAA
TAFMSP
TAF AMD
KMSP 250254Z 2503/2606 10015G20KT P6SM BKN016 OVC025
     FM250600 09014G20KT 6SM BR OVC014
     FM251500 08014G20KT P6SM OVC019
     FM251800 07016G22KT P6SM BKN020 OVC030
     FM252000 06014KT P6SM BKN035=



000
FTUS43 KMPX 242343
TAFSTC
TAF
KSTC 242343Z 2500/2524 11009KT P6SM VCSH OVC020
     FM250700 08008KT 4SM BR OVC008
     FM251500 09008KT P6SM OVC015
     FM252200 08010G16KT P6SM SCT030 OVC050=



000
FTUS43 KMPX 242343
TAFAXN
TAF
KAXN 242343Z 2500/2524 11013KT 2SM -RA BR OVC006
     FM250500 09010KT 2SM BR OVC004
     FM251400 08010KT 4SM BR OVC010
     FM251900 08012G18KT P6SM SCT030 OVC050=



000
FTUS43 KMPX 242343
TAFEAU
TAF
KEAU 242343Z 2500/2524 13010KT P6SM VCSH OVC040
     FM250200 12010KT P6SM -RA SCT015 OVC030
     FM250400 11008KT P6SM -RA SCT015 OVC030
     FM250600 09010KT 6SM BR OVC014
     FM251500 08014G20KT P6SM OVC019
     FM251800 07016G22KT P6SM BKN020 OVC030=



000
FTUS43 KMPX 242343
TAFRWF
TAF
KRWF 242343Z 2500/2524 13012KT P6SM -RA OVC015
     FM250500 09008KT 4SM BR OVC009
     FM251500 10010KT 5SM BR OVC015
     FM252000 08010G16KT P6SM SCT030 OVC050=



000
FTUS43 KMPX 242343
TAFMSP
TAF
KMSP 242343Z 2500/2606 11013G18KT 3SM -RA SCT016 OVC025
     FM250200 10015G20KT 5SM BR VCSH BKN016 OVC025
     FM250600 09014G20KT 6SM BR OVC014
     FM251500 08014G20KT P6SM OVC019
     FM251800 07016G22KT P6SM BKN020 OVC030
     FM252000 06014KT P6SM BKN035=



000
FTUS43 KMPX 242343
TAFMSP
TAF
KMSP 242343Z 2500/2606 11013G18KT 3SM -RA SCT016 OVC025
     FM250200 10015G20KT 5SM BR VCSH BKN016 OVC025
     FM250600 09014G20KT 6SM BR OVC014
     FM251500 08014G20KT P6SM OVC019
     FM251800 07016G22KT P6SM BKN020 OVC030
     FM252000 06014KT P6SM BKN035=



000
FTUS43 KMPX 242343
TAFEAU
TAF
KEAU 242343Z 2500/2524 13010KT P6SM VCSH OVC040
     FM250200 12010KT P6SM -RA SCT015 OVC030
     FM250400 11008KT P6SM -RA SCT015 OVC030
     FM250600 09010KT 6SM BR OVC014
     FM251500 08014G20KT P6SM OVC019
     FM251800 07016G22KT P6SM BKN020 OVC030=



000
FTUS43 KMPX 242343
TAFSTC
TAF
KSTC 242343Z 2500/2524 11009KT P6SM VCSH OVC020
     FM250700 08008KT 4SM BR OVC008
     FM251500 09008KT P6SM OVC015
     FM252200 08010G16KT P6SM SCT030 OVC050=



000
FTUS43 KMPX 242343
TAFAXN
TAF
KAXN 242343Z 2500/2524 11013KT 2SM -RA BR OVC006
     FM250500 09010KT 2SM BR OVC004
     FM251400 08010KT 4SM BR OVC010
     FM251900 08012G18KT P6SM SCT030 OVC050=



000
FTUS43 KMPX 242343
TAFRWF
TAF
KRWF 242343Z 2500/2524 13012KT P6SM -RA OVC015
     FM250500 09008KT 4SM BR OVC009
     FM251500 10010KT 5SM BR OVC015
     FM252000 08010G16KT P6SM SCT030 OVC050=



000
FTUS43 KMPX 242245 AAA
TAFAXN
TAF AMD
KAXN 242245Z 2423/2518 12014KT 2SM -RA BR OVC008
     FM250000 11013KT 3SM BR OVC008
     FM250500 09010KT 2SM BR OVC005
     FM251200 08010KT 4SM BR OVC010=



000
FTUS43 KMPX 242054 AAA
TAFMSP
TAF AMD
KMSP 242054Z 2421/2524 12013KT 6SM -SHRA BKN025 OVC035
     FM242300 11013G18KT 5SM -DZ SCT015 OVC025
     FM250600 09014G20KT 6SM BR OVC014
     FM251500 08014G20KT P6SM OVC019
     FM251800 07016G22KT P6SM BKN020 OVC030
     FM252000 06014KT P6SM BKN035=



000
FTUS43 KMPX 241720
TAFMSP
TAF
KMSP 241720Z 2418/2524 12014G21KT 6SM -SHRA SCT030 OVC050
     FM242300 11013KT 5SM -DZ SCT015 OVC025
     FM250600 09014G20KT 6SM BR OVC014
     FM251500 08014G20KT P6SM OVC019
     FM251800 07016G22KT P6SM BKN020 OVC030
     FM252000 06014KT P6SM BKN035=



000
FTUS43 KMPX 241720
TAFSTC
TAF
KSTC 241720Z 2418/2518 13009G16KT 5SM -SHRA BKN035 OVC050
     FM242000 12014G21KT 6SM -SHRA OVC020
     FM250000 10013KT 6SM BR OVC012
     FM250700 08008KT 4SM BR OVC008
     FM251500 09008KT P6SM OVC015=



000
FTUS43 KMPX 241720
TAFEAU
TAF
KEAU 241720Z 2418/2518 11011KT P6SM OVC070
     FM242000 12013KT 6SM -SHRA SCT030 OVC050
     FM250300 09011KT 6SM -DZ OVC025
     FM250600 09011KT 6SM -DZ BR OVC015
     FM251200 07009KT P6SM SCT020 OVC030=



000
FTUS43 KMPX 241720
TAFRWF
TAF
KRWF 241720Z 2418/2518 15016G22KT P6SM OVC035
     FM242000 14015G22KT P6SM OVC025
     FM250200 11013KT 6SM BR OVC014
     FM250700 09008KT 4SM BR OVC009
     FM251500 10010KT 5SM BR OVC015=



000
FTUS43 KMPX 241720
TAFAXN
TAF
KAXN 241720Z 2418/2518 12014G21KT P6SM SCT010 OVC035
     FM250000 11013KT 4SM BR OVC012
     FM250500 09010KT 2SM BR OVC005
     FM251200 08010KT 4SM BR OVC010=



000
FTUS43 KMPX 241720
TAFMSP
TAF
KMSP 241720Z 2418/2524 12014G21KT 6SM -SHRA SCT030 OVC050
     FM242300 11013KT 5SM -DZ SCT015 OVC025
     FM250600 09014G20KT 6SM BR OVC014
     FM251500 08014G20KT P6SM OVC019
     FM251800 07016G22KT P6SM BKN020 OVC030
     FM252000 06014KT P6SM BKN035=



000
FTUS43 KMPX 241720
TAFSTC
TAF
KSTC 241720Z 2418/2518 13009G16KT 5SM -SHRA BKN035 OVC050
     FM242000 12014G21KT 6SM -SHRA OVC020
     FM250000 10013KT 6SM BR OVC012
     FM250700 08008KT 4SM BR OVC008
     FM251500 09008KT P6SM OVC015=



000
FTUS43 KMPX 241720
TAFAXN
TAF
KAXN 241720Z 2418/2518 12014G21KT P6SM SCT010 OVC035
     FM250000 11013KT 4SM BR OVC012
     FM250500 09010KT 2SM BR OVC005
     FM251200 08010KT 4SM BR OVC010=



000
FTUS43 KMPX 241720
TAFRWF
TAF
KRWF 241720Z 2418/2518 15016G22KT P6SM OVC035
     FM242000 14015G22KT P6SM OVC025
     FM250200 11013KT 6SM BR OVC014
     FM250700 09008KT 4SM BR OVC009
     FM251500 10010KT 5SM BR OVC015=



000
FTUS43 KMPX 241720
TAFEAU
TAF
KEAU 241720Z 2418/2518 11011KT P6SM OVC070
     FM242000 12013KT 6SM -SHRA SCT030 OVC050
     FM250300 09011KT 6SM -DZ OVC025
     FM250600 09011KT 6SM -DZ BR OVC015
     FM251200 07009KT P6SM SCT020 OVC030=



000
FTUS43 KMPX 241627 AAA
TAFRWF
TAF AMD
KRWF 241627Z 2416/2512 15016G22KT P6SM -RA OVC035
     FM241900 14014G21KT P6SM OVC025
     FM250200 11013KT 6SM BR OVC014
     FM250700 09008KT 5SM BR OVC009=



000
FTUS43 KMPX 241627 AAA
TAFRWF
TAF AMD
KRWF 241627Z 2416/2512 15016G22KT P6SM -RA OVC035
     FM241900 14014G21KT P6SM OVC025
     FM250200 11013KT 6SM BR OVC014
     FM250700 09008KT 5SM BR OVC009=



000
FTUS43 KMPX 241459 AAA
TAFSTC
TAF AMD
KSTC 241459Z 2415/2512 13009G16KT 6SM -SHRA BKN035 OVC050
      TEMPO 2415/2417 2SM -SHRA OVC035
     FM242000 12014G21KT 6SM -SHRA OVC020
     FM250000 10013KT 6SM BR OVC012
     FM250700 08008KT 4SM BR OVC008=



000
FTUS43 KMPX 241459 AAA
TAFSTC
TAF AMD
KSTC 241459Z 2415/2512 13009G16KT 6SM -SHRA BKN035 OVC050
      TEMPO 2415/2417 2SM -SHRA OVC035
     FM242000 12014G21KT 6SM -SHRA OVC020
     FM250000 10013KT 6SM BR OVC012
     FM250700 08008KT 4SM BR OVC008=



000
FTUS43 KMPX 241453 AAA
TAFMSP
TAF AMD
KMSP 241453Z 2415/2518 12014G21KT 6SM -SHRA SCT030 OVC050
     FM250000 11013KT 5SM -DZ OVC025
     FM250600 09014G20KT 6SM BR OVC014
     FM251600 08014G20KT P6SM OVC019=



000
FTUS43 KMPX 241120
TAFRWF
TAF
KRWF 241120Z 2412/2512 15016G22KT P6SM OVC070
     FM241900 14014G21KT P6SM OVC025
     FM250200 11013KT 6SM BR OVC014
     FM250700 09008KT 5SM BR OVC009=



000
FTUS43 KMPX 241120
TAFMSP
TAF
KMSP 241120Z 2412/2518 12011KT P6SM SCT060 OVC080
     FM241600 12014G21KT 6SM -SHRA SCT030 OVC050
     FM250000 11013KT 5SM -DZ OVC025
     FM250600 09014G20KT 6SM BR OVC014
     FM251600 08014G20KT P6SM OVC019=



000
FTUS43 KMPX 241120
TAFAXN
TAF
KAXN 241120Z 2412/2512 10012KT P6SM VCSH OVC050
     FM241330 12014G21KT 6SM -SHRA BR OVC040
     FM241800 12016G22KT 6SM -RA OVC020
     FM250000 11013KT 4SM BR OVC012
     FM250500 09010KT 2SM BR OVC005=



000
FTUS43 KMPX 241120
TAFAXN
TAF
KAXN 241120Z 2412/2512 10012KT P6SM VCSH OVC050
     FM241330 12014G21KT 6SM -SHRA BR OVC040
     FM241800 12016G22KT 6SM -RA OVC020
     FM250000 11013KT 4SM BR OVC012
     FM250500 09010KT 2SM BR OVC005=



000
FTUS43 KMPX 241120
TAFEAU
TAF
KEAU 241120Z 2412/2512 09005KT P6SM BKN150
     FM241500 11011KT P6SM OVC070
     FM242100 12013KT 6SM -SHRA SCT030 OVC050
     FM250300 09011KT 6SM -DZ BKN020 OVC040=



000
FTUS43 KMPX 241120
TAFSTC
TAF
KSTC 241120Z 2412/2512 12007KT P6SM BKN050 OVC080
     FM241600 13012G17KT 6SM -SHRA OVC035
     FM242000 12014G21KT 6SM -SHRA OVC020
     FM250000 10013KT 6SM BR OVC012
     FM250700 08008KT 4SM BR OVC008=



000
FTUS43 KMPX 241120
TAFRWF
TAF
KRWF 241120Z 2412/2512 15016G22KT P6SM OVC070
     FM241900 14014G21KT P6SM OVC025
     FM250200 11013KT 6SM BR OVC014
     FM250700 09008KT 5SM BR OVC009=



000
FTUS43 KMPX 241120
TAFMSP
TAF
KMSP 241120Z 2412/2518 12011KT P6SM SCT060 OVC080
     FM241600 12014G21KT 6SM -SHRA SCT030 OVC050
     FM250000 11013KT 5SM -DZ OVC025
     FM250600 09014G20KT 6SM BR OVC014
     FM251600 08014G20KT P6SM OVC019=



000
FTUS43 KMPX 241120
TAFEAU
TAF
KEAU 241120Z 2412/2512 09005KT P6SM BKN150
     FM241500 11011KT P6SM OVC070
     FM242100 12013KT 6SM -SHRA SCT030 OVC050
     FM250300 09011KT 6SM -DZ BKN020 OVC040=



000
FTUS43 KMPX 241120
TAFSTC
TAF
KSTC 241120Z 2412/2512 12007KT P6SM BKN050 OVC080
     FM241600 13012G17KT 6SM -SHRA OVC035
     FM242000 12014G21KT 6SM -SHRA OVC020
     FM250000 10013KT 6SM BR OVC012
     FM250700 08008KT 4SM BR OVC008=



000
FTUS43 KMPX 240904 AAA
TAFRWF
TAF AMD
KRWF 240904Z 2409/2506 15015KT P6SM OVC080
     FM241200 15016G22KT P6SM VCSH OVC060
     FM241900 14014G21KT P6SM VCSH OVC025
     FM250200 11013KT 5SM BR OVC009=



000
FTUS43 KMPX 240904 AAA
TAFRWF
TAF AMD
KRWF 240904Z 2409/2506 15015KT P6SM OVC080
     FM241200 15016G22KT P6SM VCSH OVC060
     FM241900 14014G21KT P6SM VCSH OVC025
     FM250200 11013KT 5SM BR OVC009=



000
FTUS43 KMPX 240857 AAA
TAFMSP
TAF AMD
KMSP 240857Z 2409/2512 12006KT P6SM BKN070 OVC120
     FM241000 12011KT P6SM VCSH SCT060 OVC080
     FM241600 12014G21KT 6SM -SHRA SCT030 OVC050
     FM250000 11013KT 5SM -DZ OVC025
     FM250600 11012KT 6SM BR OVC014=



000
FTUS43 KMPX 240857 AAA
TAFMSP
TAF AMD
KMSP 240857Z 2409/2512 12006KT P6SM BKN070 OVC120
     FM241000 12011KT P6SM VCSH SCT060 OVC080
     FM241600 12014G21KT 6SM -SHRA SCT030 OVC050
     FM250000 11013KT 5SM -DZ OVC025
     FM250600 11012KT 6SM BR OVC014=



000
FTUS43 KMPX 240539
TAFAXN
TAF
KAXN 240539Z 2406/2506 11010KT P6SM OVC070
     FM241000 12012KT P6SM VCSH OVC050
     FM241300 13014G21KT 6SM -SHRA OVC040
     FM241800 13016G22KT 6SM -DZ OVC020
     FM250000 11013KT 4SM BR OVC008=



000
FTUS43 KMPX 240539
TAFEAU
TAF
KEAU 240539Z 2406/2506 VRB03KT P6SM SCT250
     FM241000 11004KT P6SM BKN150
     FM241500 13011KT P6SM OVC070
     FM242100 13013KT 6SM -SHRA OVC040
     FM250300 11011KT 6SM -DZ OVC020=



000
FTUS43 KMPX 240539
TAFMSP
TAF
KMSP 240539Z 2406/2512 12006KT P6SM BKN150
     FM241200 12011KT P6SM OVC080
     FM241800 12014G21KT 6SM -SHRA OVC050
     FM250000 11013KT 5SM -DZ OVC030
     FM250600 11012KT 6SM BR OVC014=



000
FTUS43 KMPX 240539
TAFRWF
TAF
KRWF 240539Z 2406/2506 11007KT P6SM BKN050 OVC080
     FM241200 13011KT P6SM VCSH OVC060
     FM241400 14013G19KT 6SM -SHRA OVC040
     FM241800 13016G23KT 6SM -DZ OVC025
     FM250200 12013KT 5SM BR OVC009=



000
FTUS43 KMPX 240539
TAFSTC
TAF
KSTC 240539Z 2406/2506 11006KT P6SM OVC100
     FM241200 12007KT P6SM BKN050
     FM241500 13012G17KT 6SM -SHRA OVC035
     FM241800 12014G21KT 6SM -SHRA OVC020
     FM250000 11013KT 4SM BR OVC009=



000
FTUS43 KMPX 240232 AAA
TAFMSP
TAF AMD
KMSP 240232Z 2403/2506 VRB04KT P6SM SCT180 SCT300
     FM240600 11006KT P6SM BKN100
     FM241200 12011KT P6SM OVC050
     FM241800 12013G18KT 6SM -SHRA OVC035
     FM250000 11012KT 5SM -SHRA BR OVC015=



000
FTUS43 KMPX 240210 AAA
TAFRWF
TAF AMD
KRWF 240210Z 2402/2424 VRB05KT P6SM FEW250
      TEMPO 2402/2403 5SM HZ
     FM240400 12007KT P6SM BKN050 OVC080
     FM241200 13009KT P6SM VCSH OVC040
     FM241500 14013G19KT 6SM -SHRA OVC030
     FM241800 14016G23KT 6SM -SHRA OVC025=



000
FTUS43 KMPX 232321
TAFMSP
TAF
KMSP 232321Z 2400/2506 VRB05KT P6SM SCT300
     FM240600 11006KT P6SM BKN100
     FM241200 12011KT P6SM OVC050
     FM241800 12013G18KT 6SM -SHRA OVC035
     FM250000 11012KT 5SM -SHRA BR OVC015=



000
FTUS43 KMPX 232321
TAFSTC
TAF
KSTC 232321Z 2400/2424 VRB05KT P6SM FEW250
     FM240600 11006KT P6SM BKN100
     FM241200 12007KT P6SM VCSH BKN050
     FM241500 13012G17KT 6SM -SHRA OVC035
     FM241800 13014G20KT 6SM -SHRA OVC025=



000
FTUS43 KMPX 232321
TAFRWF
TAF
KRWF 232321Z 2400/2424 VRB05KT P6SM FEW250
     FM240400 12007KT P6SM BKN050 OVC080
     FM241200 13009KT P6SM VCSH OVC040
     FM241500 14013G19KT 6SM -SHRA OVC030
     FM241800 14016G23KT 6SM -SHRA OVC025=



000
FTUS43 KMPX 232321
TAFAXN
TAF
KAXN 232321Z 2400/2424 VRB05KT P6SM FEW250
     FM240400 11007KT P6SM BKN100
     FM241000 13011KT P6SM VCSH OVC050
     FM241300 13014G19KT 6SM -SHRA OVC040
     FM241800 13016G22KT 6SM -SHRA OVC020=



000
FTUS43 KMPX 232321
TAFEAU
TAF
KEAU 232321Z 2400/2424 VRB05KT P6SM SCT250
     FM241000 11004KT P6SM SCT050 BKN100
     FM241500 13011KT P6SM OVC050
     FM242100 13012KT 6SM -SHRA OVC040=



000
FTUS43 KMPX 232321
TAFMSP
TAF
KMSP 232321Z 2400/2506 VRB05KT P6SM SCT300
     FM240600 11006KT P6SM BKN100
     FM241200 12011KT P6SM OVC050
     FM241800 12013G18KT 6SM -SHRA OVC035
     FM250000 11012KT 5SM -SHRA BR OVC015=



000
FTUS43 KMPX 232321
TAFAXN
TAF
KAXN 232321Z 2400/2424 VRB05KT P6SM FEW250
     FM240400 11007KT P6SM BKN100
     FM241000 13011KT P6SM VCSH OVC050
     FM241300 13014G19KT 6SM -SHRA OVC040
     FM241800 13016G22KT 6SM -SHRA OVC020=



000
FTUS43 KMPX 232321
TAFRWF
TAF
KRWF 232321Z 2400/2424 VRB05KT P6SM FEW250
     FM240400 12007KT P6SM BKN050 OVC080
     FM241200 13009KT P6SM VCSH OVC040
     FM241500 14013G19KT 6SM -SHRA OVC030
     FM241800 14016G23KT 6SM -SHRA OVC025=



000
FTUS43 KMPX 232321
TAFSTC
TAF
KSTC 232321Z 2400/2424 VRB05KT P6SM FEW250
     FM240600 11006KT P6SM BKN100
     FM241200 12007KT P6SM VCSH BKN050
     FM241500 13012G17KT 6SM -SHRA OVC035
     FM241800 13014G20KT 6SM -SHRA OVC025=



000
FTUS43 KMPX 232321
TAFEAU
TAF
KEAU 232321Z 2400/2424 VRB05KT P6SM SCT250
     FM241000 11004KT P6SM SCT050 BKN100
     FM241500 13011KT P6SM OVC050
     FM242100 13012KT 6SM -SHRA OVC040=



000
FTUS43 KMPX 232045 AAA
TAFMSP
TAF AMD
KMSP 232045Z 2321/2424 30008G16KT P6SM SKC
     FM240000 28005KT P6SM SKC
     FM240200 VRB03KT P6SM FEW200
     FM240800 11005KT P6SM BKN080
     FM241200 13012KT P6SM VCSH OVC050
     FM241800 10011KT P6SM -SHRA OVC035=



000
FTUS43 KMPX 231722
TAFMSP
TAF
KMSP 231722Z 2318/2424 28006KT P6SM SKC
     FM240100 VRB03KT P6SM FEW200
     FM240600 11005KT P6SM BKN080
     FM241200 13012KT P6SM VCSH OVC050
     FM241800 10011KT P6SM -SHRA OVC035=



000
FTUS43 KMPX 231722
TAFAXN
TAF
KAXN 231722Z 2318/2418 31007KT P6SM SKC
     FM232300 VRB03KT P6SM FEW250
     FM240300 11005KT P6SM BKN070 OVC120
     FM240800 13010KT 6SM -SHRA OVC040=



000
FTUS43 KMPX 231722
TAFSTC
TAF
KSTC 231722Z 2318/2418 29007KT P6SM SKC
     FM240000 VRB04KT P6SM FEW250
     FM241000 12007KT P6SM -SHRA OVC040=



000
FTUS43 KMPX 231722
TAFMSP
TAF
KMSP 231722Z 2318/2424 28006KT P6SM SKC
     FM240100 VRB03KT P6SM FEW200
     FM240600 11005KT P6SM BKN080
     FM241200 13012KT P6SM VCSH OVC050
     FM241800 10011KT P6SM -SHRA OVC035=



000
FTUS43 KMPX 231722
TAFAXN
TAF
KAXN 231722Z 2318/2418 31007KT P6SM SKC
     FM232300 VRB03KT P6SM FEW250
     FM240300 11005KT P6SM BKN070 OVC120
     FM240800 13010KT 6SM -SHRA OVC040=



000
FTUS43 KMPX 231722
TAFEAU
TAF
KEAU 231722Z 2318/2418 30009G16KT P6SM SKC
     FM240000 VRB03KT P6SM SKC
     FM241000 11004KT P6SM SCT050 BKN100
     FM241700 13010KT 6SM -RA OVC050=



000
FTUS43 KMPX 231722
TAFSTC
TAF
KSTC 231722Z 2318/2418 29007KT P6SM SKC
     FM240000 VRB04KT P6SM FEW250
     FM241000 12007KT P6SM -SHRA OVC040=



000
FTUS43 KMPX 231722
TAFRWF
TAF
KRWF 231722Z 2318/2418 29006KT P6SM SKC
     FM232200 VRB04KT P6SM FEW250
     FM240400 12007KT P6SM BKN050 OVC080
     FM240900 13009KT P6SM VCSH OVC040
     FM241400 15013G19KT 4SM -RA OVC030=



000
FTUS43 KMPX 231722
TAFRWF
TAF
KRWF 231722Z 2318/2418 29006KT P6SM SKC
     FM232200 VRB04KT P6SM FEW250
     FM240400 12007KT P6SM BKN050 OVC080
     FM240900 13009KT P6SM VCSH OVC040
     FM241400 15013G19KT 4SM -RA OVC030=



000
FTUS43 KMPX 231722
TAFEAU
TAF
KEAU 231722Z 2318/2418 30009G16KT P6SM SKC
     FM240000 VRB03KT P6SM SKC
     FM241000 11004KT P6SM SCT050 BKN100
     FM241700 13010KT 6SM -RA OVC050=



000
FTUS43 KMPX 231455 AAA
TAFMSP
TAF AMD
KMSP 231455Z 2315/2418 28006KT P6SM SKC
     FM240100 VRB03KT P6SM FEW200
     FM240600 11005KT P6SM BKN080
     FM241200 13009KT P6SM -SHRA OVC050=



000
FTUS43 KMPX 231455 AAA
TAFMSP
TAF AMD
KMSP 231455Z 2315/2418 28006KT P6SM SKC
     FM240100 VRB03KT P6SM FEW200
     FM240600 11005KT P6SM BKN080
     FM241200 13009KT P6SM -SHRA OVC050=



000
FTUS43 KMPX 231120
TAFEAU
TAF
KEAU 231120Z 2312/2412 29008KT P6SM SKC
     FM231600 30012KT P6SM SKC
     FM240000 VRB03KT P6SM SKC
     FM241000 11004KT P6SM SCT050 BKN100=



000
FTUS43 KMPX 231120
TAFSTC
TAF
KSTC 231120Z 2312/2412 29007KT P6SM SKC
     FM240000 VRB04KT P6SM FEW250
     FM241000 12007KT P6SM -SHRA OVC040=



000
FTUS43 KMPX 231120
TAFAXN
TAF
KAXN 231120Z 2312/2412 31007KT P6SM SKC
     FM232300 VRB03KT P6SM FEW250
     FM240300 11005KT P6SM BKN070 OVC120
     FM240800 13010KT 6SM -SHRA OVC040=



000
FTUS43 KMPX 231120
TAFEAU
TAF
KEAU 231120Z 2312/2412 29008KT P6SM SKC
     FM231600 30012KT P6SM SKC
     FM240000 VRB03KT P6SM SKC
     FM241000 11004KT P6SM SCT050 BKN100=



000
FTUS43 KMPX 231120
TAFMSP
TAF
KMSP 231120Z 2312/2418 30007KT P6SM SKC
     FM240100 VRB03KT P6SM FEW200
     FM240600 11005KT P6SM BKN080
     FM241200 13009KT P6SM -SHRA OVC050=



000
FTUS43 KMPX 231120
TAFSTC
TAF
KSTC 231120Z 2312/2412 29007KT P6SM SKC
     FM240000 VRB04KT P6SM FEW250
     FM241000 12007KT P6SM -SHRA OVC040=



000
FTUS43 KMPX 231120
TAFRWF
TAF
KRWF 231120Z 2312/2412 29006KT P6SM SKC
     FM232200 VRB04KT P6SM FEW250
     FM240400 12007KT P6SM BKN050 OVC080
     FM240900 13009KT 6SM -SHRA OVC040=



000
FTUS43 KMPX 231120
TAFAXN
TAF
KAXN 231120Z 2312/2412 31007KT P6SM SKC
     FM232300 VRB03KT P6SM FEW250
     FM240300 11005KT P6SM BKN070 OVC120
     FM240800 13010KT 6SM -SHRA OVC040=



000
FTUS43 KMPX 231120
TAFMSP
TAF
KMSP 231120Z 2312/2418 30007KT P6SM SKC
     FM240100 VRB03KT P6SM FEW200
     FM240600 11005KT P6SM BKN080
     FM241200 13009KT P6SM -SHRA OVC050=



000
FTUS43 KMPX 231120
TAFRWF
TAF
KRWF 231120Z 2312/2412 29006KT P6SM SKC
     FM232200 VRB04KT P6SM FEW250
     FM240400 12007KT P6SM BKN050 OVC080
     FM240900 13009KT 6SM -SHRA OVC040=



000
FTUS43 KMPX 230852 AAA
TAFMSP
TAF AMD
KMSP 230852Z 2309/2412 29007KT P6SM SKC
     FM240100 VRB03KT P6SM FEW200
     FM240600 11005KT P6SM BKN120=



000
FTUS43 KMPX 230520
TAFRWF
TAF
KRWF 230520Z 2306/2406 29006KT P6SM SKC
     FM232200 14007KT P6SM SCT250=



000
FTUS43 KMPX 230520
TAFAXN
TAF
KAXN 230520Z 2306/2406 32007KT P6SM SKC
     FM240000 12005KT P6SM SCT250=



000
FTUS43 KMPX 230520
TAFEAU
TAF
KEAU 230520Z 2306/2406 29008KT P6SM SKC
     FM231600 30010G17KT P6SM SKC
     FM240000 VRB03KT P6SM SKC=



000
FTUS43 KMPX 230520
TAFSTC
TAF
KSTC 230520Z 2306/2406 29007KT P6SM SKC
     FM240100 10004KT P6SM FEW250=



000
FTUS43 KMPX 230520
TAFMSP
TAF
KMSP 230520Z 2306/2412 29007KT P6SM SKC
     FM240100 10004KT P6SM FEW200=



000
FTUS43 KMPX 230520
TAFRWF
TAF
KRWF 230520Z 2306/2406 29006KT P6SM SKC
     FM232200 14007KT P6SM SCT250=



000
FTUS43 KMPX 230520
TAFAXN
TAF
KAXN 230520Z 2306/2406 32007KT P6SM SKC
     FM240000 12005KT P6SM SCT250=



000
FTUS43 KMPX 230520
TAFEAU
TAF
KEAU 230520Z 2306/2406 29008KT P6SM SKC
     FM231600 30010G17KT P6SM SKC
     FM240000 VRB03KT P6SM SKC=



000
FTUS43 KMPX 230520
TAFSTC
TAF
KSTC 230520Z 2306/2406 29007KT P6SM SKC
     FM240100 10004KT P6SM FEW250=



000
FTUS43 KMPX 230520
TAFMSP
TAF
KMSP 230520Z 2306/2412 29007KT P6SM SKC
     FM240100 10004KT P6SM FEW200=



000
FTUS43 KMPX 230246 AAA
TAFMSP
TAF AMD
KMSP 230246Z 2303/2406 29007KT P6SM SKC
     FM240100 VRB04KT P6SM FEW200=



000
FTUS43 KMPX 230246 AAA
TAFMSP
TAF AMD
KMSP 230246Z 2303/2406 29007KT P6SM SKC
     FM240100 VRB04KT P6SM FEW200=



    US Dept of Commerce
    National Oceanic and Atmospheric Administration
    National Weather Service
    1325 East West Highway
    Silver Spring, MD 20910
    Page Author: NWS Internet Services Team
Disclaimer
Information Quality
Credits
Glossary
Privacy Policy
Freedom of Information Act (FOIA)
About Us
Career Opportunities